Salem, New Jersey
Current Conditions -  °F | °C
As of 11:51 PM on Sunday 21 Dec 2014 (Local Time) from KILG Reporting Station
Clear Clear  
Wind Chill: 18°   Ceiling: Unl
Heat Index: 25°   Visibility: 7mi
Dew Point: 20°   Wind: 6mph
Humidity: 81%   Direction: 320°NW
Pressure: 30.35"   Gusts: NA
Location:  39.57°N, 75.47°W
Report Text: KILG 220451Z AUTO 32005KT 7SM CLR M04/M07 A3035 RMK AO2 SLP277 T10391067 400501039
Loading
Personal Weather Stations






























Interactive Weather Map New forecast layout! Learn more

10-Day Weather Forecast

Advertisements
Track Severe Weather on mobile